Time;durP1;ratioP1;P1;durP2;ratioP2;P2;SDS_P1;SDS_P2;PMS_P1;PMS_P2;Temp;Humidity;BMP_temperature;BMP_pressure;BME280_temperature;BME280_humidity;BME280_pressure;Samples;Min_cycle;Max_cycle;Signal;HPM_P1;HPM_P2
2023/09/12 00:02:16;;;;;;;5.95;3.13;;;19.20;19.50;;;;;;6220414;28;20058;-79
2023/09/12 00:05:18;;;;;;;5.88;2.92;;;19.20;22.00;;;;;;6244190;28;20056;-79
2023/09/12 00:08:20;;;;;;;7.25;3.38;;;19.20;20.90;;;;;;6231285;28;20064;-78
2023/09/12 00:11:25;;;;;;;7.57;3.15;;;19.20;24.40;;;;;;6220859;28;20143;-79
2023/09/12 00:14:28;;;;;;;6.05;3.13;;;19.10;23.00;;;;;;6195861;28;20506;-78
2023/09/12 00:17:30;;;;;;;13.18;3.60;;;19.20;24.00;;;;;;6243627;28;20053;-78
2023/09/12 00:20:31;;;;;;;9.55;3.50;;;19.20;25.70;;;;;;6220668;28;20601;-79
2023/09/12 00:23:33;;;;;;;7.78;3.22;;;19.10;28.00;;;;;;6225097;28;20425;-79
2023/09/12 00:26:35;;;;;;;7.80;2.92;;;19.10;26.80;;;;;;6243721;28;20188;-79
2023/09/12 00:29:36;;;;;;;6.13;2.72;;;19.10;30.20;;;;;;6220138;28;20046;-79
2023/09/12 00:32:38;;;;;;;8.68;3.42;;;19.00;25.40;;;;;;6229441;28;20497;-79
2023/09/12 00:35:40;;;;;;;9.20;3.47;;;19.00;29.80;;;;;;6243277;28;20517;-78
2023/09/12 00:38:41;;;;;;;7.50;3.47;;;19.00;34.10;;;;;;6234109;28;20053;-78
2023/09/12 00:41:43;;;;;;;7.00;3.35;;;18.90;34.80;;;;;;6220356;28;20060;-78
2023/09/12 00:44:45;;;;;;;6.95;3.03;;;18.90;34.00;;;;;;6243348;28;20432;-79
2023/09/12 00:47:47;;;;;;;7.35;3.15;;;18.90;36.20;;;;;;6219937;28;20058;-79
2023/09/12 00:50:48;;;;;;;10.23;3.65;;;18.90;35.10;;;;;;6242046;28;20079;-79
2023/09/12 00:53:50;;;;;;;7.55;3.40;;;18.90;36.50;;;;;;6214020;28;20172;-79
2023/09/12 00:56:52;;;;;;;7.72;3.78;;;18.80;36.00;;;;;;6243174;28;20053;-79
2023/09/12 00:59:53;;;;;;;9.63;4.07;;;18.80;37.80;;;;;;6219826;28;20053;-79
2023/09/12 01:02:56;;;;;;;8.38;3.10;;;18.80;40.80;;;;;;6243058;28;20629;-79
2023/09/12 01:05:58;;;;;;;8.77;3.47;;;18.80;41.70;;;;;;6219181;28;20060;-79
2023/09/12 01:08:59;;;;;;;7.45;2.97;;;18.80;41.80;;;;;;6242813;28;20467;-79
2023/09/12 01:12:04;;;;;;;6.93;3.30;;;18.80;40.90;;;;;;6219731;28;20267;-79
2023/09/12 01:15:13;;;;;;;6.28;3.05;;;18.90;42.30;;;;;;6242838;28;20050;-79
2023/09/12 01:18:14;;;;;;;8.63;3.70;;;18.80;42.30;;;;;;6194979;28;20474;-78
2023/09/12 01:21:16;;;;;;;8.77;3.83;;;18.80;45.90;;;;;;6242103;28;20064;-80
2023/09/12 01:24:18;;;;;;;6.95;3.42;;;18.80;44.20;;;;;;6217431;28;20046;-81
2023/09/12 01:27:21;;;;;;;9.30;3.40;;;18.90;46.50;;;;;;6242637;28;20204;-79
2023/09/12 01:30:23;;;;;;;6.57;3.53;;;18.90;46.40;;;;;;6219021;28;20068;-80
2023/09/12 01:33:25;;;;;;;7.90;3.47;;;19.00;47.10;;;;;;6221486;28;20140;-79
2023/09/12 01:36:26;;;;;;;6.93;3.22;;;19.00;47.90;;;;;;6242560;28;20431;-78
2023/09/12 01:39:28;;;;;;;9.23;3.50;;;19.00;48.20;;;;;;6214716;28;20500;-78
2023/09/12 01:42:30;;;;;;;6.63;3.22;;;19.00;46.70;;;;;;6242680;28;20045;-78
2023/09/12 01:45:31;;;;;;;8.25;3.55;;;19.00;49.00;;;;;;6219422;28;20057;-79
2023/09/12 01:48:33;;;;;;;7.70;3.30;;;19.00;49.50;;;;;;6242433;28;20056;-79
2023/09/12 01:51:35;;;;;;;8.50;3.55;;;19.00;49.20;;;;;;6218947;28;20608;-79
2023/09/12 01:54:37;;;;;;;7.28;3.47;;;19.00;51.00;;;;;;6241905;28;20053;-79
2023/09/12 01:57:39;;;;;;;9.10;3.80;;;19.00;50.40;;;;;;6219082;28;20399;-78
2023/09/12 02:00:40;;;;;;;6.88;3.50;;;19.10;51.30;;;;;;6220861;28;20061;-79
2023/09/12 02:03:42;;;;;;;7.78;3.75;;;19.10;51.50;;;;;;6240907;28;20110;-81
2023/09/12 02:06:44;;;;;;;8.60;4.07;;;19.10;52.10;;;;;;6215302;28;20525;-81
2023/09/12 02:09:45;;;;;;;5.97;3.20;;;19.20;52.50;;;;;;6240896;28;20064;-80
2023/09/12 02:12:47;;;;;;;7.97;3.50;;;19.10;50.00;;;;;;6217874;28;20790;-81
2023/09/12 02:15:49;;;;;;;8.85;3.20;;;19.20;50.50;;;;;;6241172;28;20049;-80
2023/09/12 02:18:51;;;;;;;8.75;3.38;;;19.20;49.10;;;;;;6219930;28;20148;-80
2023/09/12 02:21:53;;;;;;;7.22;3.75;;;19.20;49.30;;;;;;6246826;28;20057;-80
2023/09/12 02:24:54;;;;;;;7.88;3.78;;;19.10;50.80;;;;;;6219695;28;20049;-79
2023/09/12 02:27:56;;;;;;;12.65;2.95;;;19.10;50.50;;;;;;6198407;28;20069;-79
2023/09/12 02:30:57;;;;;;;9.73;4.03;;;19.10;51.40;;;;;;6246051;28;20053;-80
2023/09/12 02:33:59;;;;;;;12.02;3.45;;;19.00;52.00;;;;;;6222720;28;20057;-80
2023/09/12 02:37:01;;;;;;;5.97;3.22;;;19.00;51.70;;;;;;6245305;28;20073;-80
2023/09/12 02:40:05;;;;;;;7.28;3.70;;;19.10;53.00;;;;;;6220001;28;20061;-79
2023/09/12 02:43:07;;;;;;;7.97;3.42;;;19.00;51.40;;;;;;6198025;28;20058;-79
2023/09/12 02:46:08;;;;;;;8.77;3.00;;;19.00;51.50;;;;;;6245923;28;20116;-79
2023/09/12 02:49:10;;;;;;;7.55;3.30;;;19.00;51.10;;;;;;6222827;28;20050;-79
2023/09/12 02:52:12;;;;;;;6.40;2.97;;;19.00;52.70;;;;;;6243584;28;20049;-81
2023/09/12 02:55:13;;;;;;;7.05;3.08;;;18.90;53.10;;;;;;6220743;28;20144;-80
2023/09/12 02:58:15;;;;;;;8.02;3.72;;;18.80;54.20;;;;;;6198099;28;20050;-79
2023/09/12 03:01:17;;;;;;;8.98;3.08;;;18.80;54.30;;;;;;6245173;28;20814;-79
2023/09/12 03:04:19;;;;;;;7.25;3.28;;;18.80;54.90;;;;;;6222541;28;20089;-79
2023/09/12 03:07:21;;;;;;;9.07;3.53;;;18.90;54.10;;;;;;6226398;28;20053;-80
2023/09/12 03:10:22;;;;;;;10.07;3.38;;;18.90;53.10;;;;;;6247107;28;20062;-79
2023/09/12 03:13:24;;;;;;;5.80;2.80;;;19.00;51.90;;;;;;6213230;28;20090;-79
2023/09/12 03:16:26;;;;;;;8.63;3.33;;;19.10;51.70;;;;;;6245885;28;20053;-81
2023/09/12 03:19:28;;;;;;;7.93;3.10;;;19.10;52.60;;;;;;6223108;28;20488;-79
2023/09/12 03:22:29;;;;;;;8.07;2.88;;;19.20;53.00;;;;;;6238339;28;20054;-79
2023/09/12 03:25:31;;;;;;;6.53;2.67;;;19.20;52.00;;;;;;6231831;23;20073;-81
2023/09/12 03:28:32;;;;;;;7.85;3.58;;;19.20;53.10;;;;;;6244290;28;20416;-79
2023/09/12 03:31:34;;;;;;;9.20;3.35;;;19.20;51.80;;;;;;6220146;28;20080;-80
2023/09/12 03:34:36;;;;;;;7.85;3.28;;;19.10;52.30;;;;;;6245116;28;20493;-81
2023/09/12 03:37:40;;;;;;;6.90;2.65;;;19.20;52.50;;;;;;6222429;28;20050;-82
2023/09/12 03:40:41;;;;;;;8.05;3.30;;;19.20;52.80;;;;;;6244682;28;20057;-81
2023/09/12 03:43:43;;;;;;;8.95;3.28;;;19.20;54.20;;;;;;6220136;28;20050;-81
2023/09/12 03:46:44;;;;;;;6.15;3.08;;;19.20;53.60;;;;;;6245243;28;20053;-81
2023/09/12 03:49:46;;;;;;;7.93;3.55;;;19.10;54.20;;;;;;6221514;28;20053;-81
2023/09/12 03:52:48;;;;;;;11.02;3.20;;;19.20;55.40;;;;;;6230469;28;20050;-82
2023/09/12 03:55:50;;;;;;;8.02;3.22;;;19.20;54.50;;;;;;6244625;28;20053;-81
2023/09/12 03:58:53;;;;;;;10.18;3.80;;;19.10;55.60;;;;;;6221158;28;20127;-81
2023/09/12 04:01:55;;;;;;;6.38;3.60;;;19.10;55.80;;;;;;6220541;28;20058;-80
2023/09/12 04:04:59;;;;;;;8.38;3.40;;;19.10;56.30;;;;;;6241475;28;20064;-80
2023/09/12 04:08:01;;;;;;;6.32;3.05;;;19.00;55.80;;;;;;6232496;28;20136;-79
2023/09/12 04:11:02;;;;;;;7.95;3.17;;;19.00;55.70;;;;;;6245151;28;20049;-80
2023/09/12 04:14:04;;;;;;;8.10;3.33;;;19.00;57.00;;;;;;6221440;28;20524;-82
2023/09/12 04:17:05;;;;;;;8.90;3.67;;;18.90;56.70;;;;;;6248903;28;20050;-81
2023/09/12 04:20:13;;;;;;;9.23;3.45;;;18.90;57.20;;;;;;6224455;28;20116;-81
2023/09/12 04:23:15;;;;;;;8.07;2.90;;;18.90;59.20;;;;;;6220862;28;20068;-81
2023/09/12 04:26:17;;;;;;;6.30;3.30;;;18.80;59.30;;;;;;6252425;28;20056;-80
2023/09/12 04:29:18;;;;;;;7.45;3.65;;;18.70;59.70;;;;;;6231461;28;20058;-81
2023/09/12 04:32:23;;;;;;;8.57;3.00;;;18.70;59.70;;;;;;6262003;28;20103;-81
2023/09/12 04:35:25;;;;;;;9.60;3.70;;;18.70;60.60;;;;;;6231528;28;20058;-82
2023/09/12 04:38:27;;;;;;;9.43;3.70;;;18.70;60.30;;;;;;6232129;28;20049;-81
2023/09/12 04:41:28;;;;;;;7.13;3.50;;;18.60;61.50;;;;;;6244112;28;20135;-82
2023/09/12 04:44:30;;;;;;;7.13;3.42;;;18.60;61.10;;;;;;6219095;28;20069;-82
2023/09/12 04:47:31;;;;;;;6.80;3.63;;;18.60;62.40;;;;;;6244018;28;20053;-81
2023/09/12 04:50:33;;;;;;;8.82;3.17;;;18.60;62.20;;;;;;6219249;28;20046;-80
2023/09/12 04:53:35;;;;;;;7.57;3.53;;;18.60;61.70;;;;;;6224014;28;20155;-81
2023/09/12 04:56:36;;;;;;;8.07;3.88;;;18.50;62.30;;;;;;6243569;28;20127;-80
2023/09/12 04:59:38;;;;;;;7.45;3.50;;;18.50;62.70;;;;;;6219394;28;20050;-81
2023/09/12 05:02:39;;;;;;;7.63;3.50;;;18.60;62.90;;;;;;6242449;28;20057;-81
2023/09/12 05:05:41;;;;;;;6.85;3.33;;;18.50;63.00;;;;;;6226065;28;20057;-81
2023/09/12 05:08:43;;;;;;;9.00;3.58;;;18.50;62.80;;;;;;6224047;28;20431;-82
2023/09/12 05:11:45;;;;;;;7.85;3.85;;;18.50;62.70;;;;;;6243581;28;20046;-81
2023/09/12 05:14:46;;;;;;;7.80;3.70;;;18.50;63.00;;;;;;6220542;28;20054;-81
2023/09/12 05:17:48;;;;;;;11.70;3.20;;;18.50;62.90;;;;;;6245604;28;20119;-81
2023/09/12 05:20:50;;;;;;;7.00;3.40;;;18.40;62.90;;;;;;6223209;28;20057;-81
2023/09/12 05:23:51;;;;;;;10.77;3.95;;;18.40;63.50;;;;;;6239427;28;20062;-81
2023/09/12 05:26:53;;;;;;;7.32;3.47;;;18.40;63.40;;;;;;6249100;28;20088;-80
2023/09/12 05:29:54;;;;;;;7.55;3.20;;;18.30;63.70;;;;;;6222872;28;20057;-81
2023/09/12 05:32:56;;;;;;;6.55;3.28;;;18.30;64.10;;;;;;6243651;28;20050;-79
2023/09/12 05:35:58;;;;;;;7.65;3.38;;;18.30;64.50;;;;;;6220000;28;20061;-79
2023/09/12 05:38:59;;;;;;;8.40;3.83;;;18.30;64.60;;;;;;6242001;28;20061;-81
2023/09/12 05:42:01;;;;;;;7.75;3.78;;;18.40;64.80;;;;;;6219407;28;20056;-78
2023/09/12 05:45:03;;;;;;;8.18;3.63;;;18.40;65.00;;;;;;6242718;28;20045;-79
2023/09/12 05:48:04;;;;;;;10.13;4.00;;;18.40;64.50;;;;;;6219444;28;20107;-80
2023/09/12 05:51:06;;;;;;;10.05;3.50;;;18.40;64.80;;;;;;6241738;28;20071;-79
2023/09/12 05:54:08;;;;;;;9.98;3.97;;;18.40;64.50;;;;;;6215053;28;20045;-80
2023/09/12 05:57:09;;;;;;;10.60;3.55;;;18.40;65.10;;;;;;6248566;28;20568;-81
2023/09/12 06:00:11;;;;;;;8.40;3.42;;;18.40;65.20;;;;;;6230772;28;20441;-81
2023/09/12 06:03:13;;;;;;;8.60;3.33;;;18.50;64.40;;;;;;6266057;28;20061;-81
2023/09/12 06:06:15;;;;;;;7.40;3.30;;;18.50;64.90;;;;;;6239502;28;20061;-83
2023/09/12 06:09:17;;;;;;;8.75;3.28;;;18.60;63.60;;;;;;6253652;28;20136;-83
2023/09/12 06:12:19;;;;;;;7.50;3.40;;;18.60;63.90;;;;;;6228879;28;20053;-83
2023/09/12 06:15:20;;;;;;;6.55;3.17;;;18.60;62.90;;;;;;6248520;28;20054;-82
2023/09/12 06:18:23;;;;;;;11.80;3.40;;;18.60;63.00;;;;;;6224510;28;20057;-82
2023/09/12 06:21:25;;;;;;;16.25;3.70;;;18.70;62.70;;;;;;6248379;28;20071;-82
2023/09/12 06:24:27;;;;;;;19.10;3.80;;;18.70;62.70;;;;;;6234568;28;20057;-82
2023/09/12 06:27:28;;;;;;;8.73;3.33;;;18.80;62.40;;;;;;6223143;28;20054;-81
2023/09/12 06:30:30;;;;;;;8.45;4.15;;;18.90;61.90;;;;;;6246175;28;20107;-81
2023/09/12 06:33:32;;;;;;;12.05;3.50;;;19.00;60.70;;;;;;6223778;28;20068;-84
2023/09/12 06:36:34;;;;;;;10.95;4.03;;;19.10;60.10;;;;;;6248041;28;20054;-83
2023/09/12 06:39:36;;;;;;;11.20;3.90;;;19.30;60.30;;;;;;6220492;28;20137;-81
2023/09/12 06:42:37;;;;;;;13.48;4.18;;;19.40;57.60;;;;;;6247247;28;20088;-79
2023/09/12 06:45:39;;;;;;;12.07;3.50;;;19.50;57.30;;;;;;6220997;28;20204;-80
2023/09/12 06:48:41;;;;;;;27.02;5.30;;;19.60;55.90;;;;;;6246134;28;20148;-79
2023/09/12 06:51:43;;;;;;;5.97;2.97;;;19.70;55.30;;;;;;6222885;28;20054;-82
2023/09/12 06:54:44;;;;;;;8.73;3.10;;;19.80;54.30;;;;;;6243648;28;20049;-80
2023/09/12 06:57:46;;;;;;;8.70;3.15;;;19.70;54.70;;;;;;6223365;28;20050;-83
2023/09/12 07:00:48;;;;;;;6.43;3.15;;;19.80;54.00;;;;;;6249422;28;20568;-82
2023/09/12 07:03:53;;;;;;;8.63;3.42;;;20.00;53.10;;;;;;6225785;28;20092;-82
2023/09/12 07:06:56;;;;;;;9.55;3.25;;;20.10;54.50;;;;;;6216614;28;20053;-83
2023/09/12 07:09:59;;;;;;;6.80;2.80;;;20.20;51.80;;;;;;6244938;28;20425;-83
2023/09/12 07:13:21;;;;;;;13.15;3.60;;;20.20;50.90;;;;;;6201132;28;20081;-82
2023/09/12 07:16:22;;;;;;;10.60;3.10;;;20.20;49.40;;;;;;6247087;28;20045;-82
2023/09/12 07:19:24;;;;;;;9.77;2.97;;;20.20;50.60;;;;;;6224674;28;20211;-83
2023/09/12 07:22:26;;;;;;;7.53;2.88;;;20.20;51.10;;;;;;6239553;28;20057;-82
2023/09/12 07:25:27;;;;;;;7.55;3.08;;;20.10;54.70;;;;;;6222642;28;20058;-85
2023/09/12 07:28:29;;;;;;;8.82;3.40;;;20.00;52.70;;;;;;6246523;28;20253;-82
2023/09/12 07:31:31;;;;;;;8.32;3.13;;;20.00;55.00;;;;;;6223245;28;20045;-82
2023/09/12 07:34:33;;;;;;;10.95;3.00;;;20.00;53.70;;;;;;6244283;28;20440;-83
2023/09/12 07:37:35;;;;;;;19.25;3.97;;;20.10;54.20;;;;;;6224492;28;20071;-84
2023/09/12 07:40:37;;;;;;;16.98;3.28;;;20.30;53.40;;;;;;6247412;28;20053;-81
2023/09/12 07:43:38;;;;;;;14.45;3.33;;;20.40;54.00;;;;;;6222359;28;20053;-76
2023/09/12 07:46:40;;;;;;;16.02;3.95;;;20.60;52.80;;;;;;6246346;28;20054;-81
2023/09/12 07:49:41;;;;;;;9.77;3.05;;;20.70;51.10;;;;;;6222714;28;20056;-82
2023/09/12 07:52:43;;;;;;;17.90;3.63;;;20.90;49.30;;;;;;6238773;28;20054;-81
2023/09/12 07:55:46;;;;;;;8.07;3.10;;;21.00;47.10;;;;;;6221031;28;20412;-82
2023/09/12 07:58:49;;;;;;;14.80;3.53;;;21.20;48.40;;;;;;6245466;28;20049;-82
2023/09/12 08:01:51;;;;;;;8.50;2.95;;;21.40;46.50;;;;;;6220423;28;20437;-83
2023/09/12 08:04:55;;;;;;;6.07;2.88;;;21.40;44.60;;;;;;6243085;28;20091;-84
2023/09/12 08:07:57;;;;;;;14.65;3.05;;;21.40;44.40;;;;;;6227546;28;20459;-83
2023/09/12 08:10:59;;;;;;;7.80;3.13;;;21.40;39.40;;;;;;6226029;28;20073;-82
2023/09/12 08:14:00;;;;;;;8.18;3.05;;;21.30;42.50;;;;;;6254343;28;20064;-84
2023/09/12 08:17:03;;;;;;;8.50;3.17;;;21.20;41.80;;;;;;6220766;28;20505;-78
2023/09/12 08:20:12;;;;;;;7.32;2.88;;;21.00;42.00;;;;;;6213741;28;20549;-79
2023/09/12 08:23:14;;;;;;;10.38;3.20;;;20.90;42.10;;;;;;6228811;28;20073;-80
2023/09/12 08:26:16;;;;;;;8.30;2.90;;;21.00;46.20;;;;;;6220236;28;20666;-80
2023/09/12 08:29:18;;;;;;;7.15;2.95;;;21.00;42.80;;;;;;6244947;28;20064;-83
2023/09/12 08:32:20;;;;;;;6.18;2.80;;;21.20;41.40;;;;;;6220601;28;20473;-80
2023/09/12 08:35:21;;;;;;;6.80;3.20;;;21.20;41.30;;;;;;6242393;28;20057;-79
2023/09/12 08:38:23;;;;;;;7.05;3.22;;;21.10;41.90;;;;;;6224401;28;20076;-80
2023/09/12 08:41:25;;;;;;;8.43;3.17;;;21.20;40.40;;;;;;6218911;28;20085;-79
2023/09/12 08:44:26;;;;;;;42.80;6.03;;;21.20;39.60;;;;;;6242050;28;20053;-79
2023/09/12 08:47:28;;;;;;;7.28;2.67;;;21.20;41.70;;;;;;6218750;28;20050;-79
2023/09/12 08:50:32;;;;;;;5.65;2.85;;;21.30;41.30;;;;;;6243042;28;20164;-79
2023/09/12 08:53:35;;;;;;;5.63;2.72;;;21.30;40.10;;;;;;6227447;28;20061;-78
2023/09/12 08:56:37;;;;;;;5.82;2.92;;;21.40;39.60;;;;;;6219563;28;20064;-79
2023/09/12 08:59:39;;;;;;;7.40;2.60;;;21.40;37.40;;;;;;6243033;28;20053;-78
2023/09/12 09:02:40;;;;;;;7.35;2.83;;;21.20;39.20;;;;;;6219731;28;20057;-79
2023/09/12 09:05:42;;;;;;;8.77;2.88;;;21.30;39.00;;;;;;6243360;28;20057;-78
2023/09/12 09:08:44;;;;;;;26.02;3.38;;;21.30;37.70;;;;;;6226245;28;20053;-77
2023/09/12 09:11:45;;;;;;;7.50;2.97;;;21.40;37.20;;;;;;6219497;28;20046;-78
2023/09/12 09:14:47;;;;;;;7.03;3.00;;;21.40;36.40;;;;;;6242986;28;20718;-78
2023/09/12 09:17:50;;;;;;;6.65;3.03;;;21.50;36.40;;;;;;6217614;28;20077;-80
2023/09/12 09:20:52;;;;;;;22.40;3.40;;;21.70;36.60;;;;;;6219446;28;20049;-81
2023/09/12 09:23:54;;;;;;;5.72;2.65;;;21.90;36.40;;;;;;6237334;28;20061;-81
2023/09/12 09:27:00;;;;;;;7.30;2.63;;;22.10;32.00;;;;;;6217918;28;20050;-78
2023/09/12 09:30:03;;;;;;;5.13;2.78;;;22.30;28.50;;;;;;6198685;28;20062;-78
2023/09/12 09:33:04;;;;;;;7.25;2.60;;;22.50;26.20;;;;;;6247649;28;20057;-77
2023/09/12 09:36:07;;;;;;;8.10;2.88;;;22.70;26.20;;;;;;6222899;28;20553;-79
2023/09/12 09:39:09;;;;;;;19.45;3.60;;;22.90;26.80;;;;;;6240245;28;20421;-81
2023/09/12 09:42:10;;;;;;;5.90;2.88;;;23.20;24.10;;;;;;6224781;28;20144;-78
2023/09/12 09:45:12;;;;;;;8.00;2.90;;;23.50;23.20;;;;;;6247727;28;20054;-80
2023/09/12 09:48:14;;;;;;;33.17;3.20;;;23.50;20.10;;;;;;6223822;28;20053;-76
2023/09/12 09:51:15;;;;;;;6.13;2.50;;;23.80;21.40;;;;;;6247587;28;20049;-77
2023/09/12 09:54:17;;;;;;;5.60;2.25;;;24.30;10.50;;;;;;6221959;28;20486;-79
2023/09/12 09:57:18;;;;;;;6.53;2.92;;;24.80;10.10;;;;;;6247866;28;20061;-78
2023/09/12 10:00:20;;;;;;;6.78;2.97;;;25.00;7.60;;;;;;6247642;28;20184;-77
2023/09/12 10:03:22;;;;;;;6.45;2.20;;;25.20;11.00;;;;;;6222273;28;20588;-82
2023/09/12 10:06:23;;;;;;;4.53;2.13;;;25.70;1.00;;;;;;6247318;28;20057;-83
2023/09/12 10:09:26;;;;;;;4.82;2.15;;;26.00;1.00;;;;;;6222212;28;20446;-82
2023/09/12 10:12:28;;;;;;;4.72;1.98;;;26.10;1.00;;;;;;6247150;28;20424;-82
2023/09/12 10:15:30;;;;;;;5.60;2.05;;;26.20;1.00;;;;;;6223524;28;20501;-80
2023/09/12 10:18:32;;;;;;;5.70;1.80;;;26.90;1.00;;;;;;6235596;28;20057;-80
2023/09/12 10:21:34;;;;;;;4.63;1.73;;;28.80;1.00;;;;;;6245490;28;20049;-76
2023/09/12 10:24:36;;;;;;;6.10;2.00;;;28.90;1.00;;;;;;6231279;28;20111;-80
2023/09/12 10:27:38;;;;;;;3.90;1.90;;;28.50;1.00;;;;;;6222898;28;20057;-76
2023/09/12 10:30:39;;;;;;;4.88;1.90;;;28.60;1.00;;;;;;6246227;28;20094;-81
2023/09/12 10:33:41;;;;;;;3.78;2.00;;;28.30;1.00;;;;;;6223001;28;20208;-82
2023/09/12 10:36:43;;;;;;;26.65;2.72;;;27.70;1.00;;;;;;6246304;28;20057;-80
2023/09/12 10:39:45;;;;;;;2.95;1.35;;;27.30;1.00;;;;;;6217453;28;20050;-80
2023/09/12 10:42:47;;;;;;;4.60;2.13;;;26.90;1.00;;;;;;6246022;28;20501;-80
2023/09/12 10:45:48;;;;;;;27.10;3.03;;;27.00;1.00;;;;;;6222272;28;20049;-79
2023/09/12 10:48:50;;;;;;;4.10;1.55;;;26.80;1.00;;;;;;6246058;28;20058;-78
2023/09/12 10:51:52;;;;;;;3.45;1.80;;;26.80;1.00;;;;;;6222209;28;20077;-81
2023/09/12 10:54:54;;;;;;;17.25;2.10;;;26.90;1.00;;;;;;6243476;28;20661;-79
2023/09/12 10:57:55;;;;;;;4.57;1.70;;;27.30;1.00;;;;;;6221730;28;20143;-81
2023/09/12 11:00:57;;;;;;;3.47;1.70;;;27.40;1.00;;;;;;6246536;28;20056;-81
2023/09/12 11:03:59;;;;;;;6.22;1.73;;;27.20;1.00;;;;;;6224019;28;20065;-80
2023/09/12 11:07:01;;;;;;;3.90;1.60;;;27.10;1.00;;;;;;6245678;28;20054;-81
2023/09/12 11:10:02;;;;;;;4.70;1.60;;;26.90;1.00;;;;;;6220513;28;20409;-79
2023/09/12 11:13:04;;;;;;;4.13;1.67;;;26.70;1.00;;;;;;6198340;28;20050;-80
2023/09/12 11:16:06;;;;;;;4.30;2.13;;;26.70;1.00;;;;;;6245849;28;20060;-81
2023/09/12 11:19:07;;;;;;;6.43;1.58;;;26.60;1.00;;;;;;6234443;28;20068;-81
2023/09/12 11:22:09;;;;;;;6.10;1.30;;;26.70;1.00;;;;;;6223165;28;20050;-80
2023/09/12 11:25:10;;;;;;;3.28;1.52;;;26.80;1.00;;;;;;6237162;28;20234;-78
2023/09/12 11:28:12;;;;;;;8.10;1.85;;;26.80;1.00;;;;;;6196871;28;20057;-79
2023/09/12 11:31:16;;;;;;;5.25;1.50;;;26.80;1.00;;;;;;6244253;28;20045;-81
2023/09/12 11:34:18;;;;;;;7.00;1.58;;;27.10;1.00;;;;;;6221140;28;20607;-80
2023/09/12 11:37:19;;;;;;;5.68;1.80;;;26.70;1.00;;;;;;6222656;28;20061;-77
2023/09/12 11:40:21;;;;;;;18.42;2.28;;;26.70;1.00;;;;;;6233820;28;20458;-80
2023/09/12 11:43:23;;;;;;;11.98;1.77;;;26.80;1.00;;;;;;6204311;28;20508;-81
2023/09/12 11:46:24;;;;;;;11.43;1.60;;;26.80;1.00;;;;;;6229974;28;20057;-80
2023/09/12 11:49:26;;;;;;;8.63;2.22;;;26.90;1.00;;;;;;6245399;28;20053;-81
2023/09/12 11:52:28;;;;;;;4.75;1.50;;;26.90;1.00;;;;;;6236528;28;20045;-78
2023/09/12 11:55:30;;;;;;;6.93;1.48;;;26.80;1.00;;;;;;6221711;28;20046;-80
2023/09/12 11:58:32;;;;;;;3.10;1.40;;;26.80;1.00;;;;;;6220889;28;20064;-80
2023/09/12 12:01:33;;;;;;;7.13;1.73;;;26.60;1.00;;;;;;6212928;28;20481;-80
2023/09/12 12:04:35;;;;;;;3.20;1.27;;;26.50;1.00;;;;;;6220700;28;20136;-81
2023/09/12 12:07:37;;;;;;;3.28;1.35;;;26.00;1.00;;;;;;6203702;28;20081;-80
2023/09/12 12:10:40;;;;;;;4.18;1.50;;;26.00;1.00;;;;;;6245200;28;20057;-80
2023/09/12 12:13:42;;;;;;;10.88;1.40;;;25.90;1.00;;;;;;6220272;28;20065;-79
2023/09/12 12:16:44;;;;;;;4.45;1.52;;;25.80;1.00;;;;;;6244375;28;20057;-80
2023/09/12 12:19:46;;;;;;;4.93;1.50;;;26.00;1.00;;;;;;6217462;28;20046;-79
2023/09/12 12:22:48;;;;;;;6.43;1.50;;;25.90;1.00;;;;;;6233665;28;20096;-80
2023/09/12 12:25:49;;;;;;;3.95;1.83;;;25.90;1.00;;;;;;6219720;28;20053;-79
2023/09/12 12:28:51;;;;;;;4.95;1.45;;;25.80;1.00;;;;;;6242530;28;20057;-80
2023/09/12 12:31:52;;;;;;;4.53;1.25;;;25.80;1.00;;;;;;6220233;28;20050;-77
2023/09/12 12:34:54;;;;;;;3.92;1.50;;;25.80;1.00;;;;;;6243392;28;20060;-76
2023/09/12 12:38:16;;;;;;;4.07;1.48;;;25.40;1.00;;;;;;6208501;28;20730;-75
2023/09/12 12:41:17;;;;;;;3.97;1.42;;;25.20;1.00;;;;;;6219646;28;20402;-76
2023/09/12 12:44:19;;;;;;;4.30;1.33;;;25.20;1.00;;;;;;6240945;28;20080;-75
2023/09/12 12:47:21;;;;;;;5.75;1.58;;;25.20;1.00;;;;;;6233157;28;20405;-75
2023/09/12 12:50:22;;;;;;;4.78;1.50;;;25.30;1.00;;;;;;6222327;28;20096;-75
2023/09/12 12:53:24;;;;;;;4.13;1.50;;;24.90;1.00;;;;;;6222539;28;20053;-75
2023/09/12 12:56:28;;;;;;;9.57;1.70;;;25.20;1.00;;;;;;6219157;28;20054;-77
2023/09/12 12:59:36;;;;;;;4.78;1.83;;;25.20;1.00;;;;;;6219138;28;20066;-77
2023/09/12 13:02:37;;;;;;;7.32;1.90;;;25.20;1.00;;;;;;6194720;28;20807;-80
2023/09/12 13:05:41;;;;;;;6.63;2.00;;;25.20;1.00;;;;;;6223378;28;20220;-83
2023/09/12 13:08:43;;;;;;;5.68;1.90;;;25.10;1.00;;;;;;6218445;28;20057;-80
2023/09/12 13:11:45;;;;;;;4.60;1.90;;;24.80;1.00;;;;;;6219141;28;20493;-80
2023/09/12 13:14:48;;;;;;;4.95;2.00;;;24.60;1.00;;;;;;6243077;28;20533;-77
2023/09/12 13:17:50;;;;;;;4.47;1.90;;;24.70;1.00;;;;;;6216509;28;20058;-78
2023/09/12 13:20:51;;;;;;;4.00;1.60;;;24.60;1.00;;;;;;6218016;28;20139;-79
2023/09/12 13:23:53;;;;;;;4.68;1.73;;;24.80;1.00;;;;;;6232587;28;20064;-77
2023/09/12 13:26:54;;;;;;;5.57;1.90;;;24.70;1.00;;;;;;6219484;28;20057;-80
2023/09/12 13:29:56;;;;;;;4.55;1.80;;;24.50;1.00;;;;;;6242539;28;20053;-80
2023/09/12 13:33:01;;;;;;;5.10;2.00;;;24.60;1.00;;;;;;6219154;28;20050;-83
2023/09/12 13:36:03;;;;;;;6.57;1.70;;;24.70;1.00;;;;;;6241516;28;20752;-82
2023/09/12 13:39:06;;;;;;;7.38;1.63;;;24.90;1.00;;;;;;6229773;28;20087;-77
2023/09/12 13:42:09;;;;;;;6.85;2.10;;;24.80;1.00;;;;;;6244072;28;20055;-81
2023/09/12 13:45:11;;;;;;;5.93;1.70;;;24.70;1.00;;;;;;6217330;28;20462;-79
2023/09/12 13:48:13;;;;;;;7.10;2.08;;;24.70;1.00;;;;;;6219074;28;20053;-80
2023/09/12 13:51:15;;;;;;;3.88;1.60;;;24.50;1.00;;;;;;6195051;28;20062;-80
2023/09/12 13:54:17;;;;;;;5.80;1.90;;;24.60;1.00;;;;;;6242390;28;20056;-81
2023/09/12 13:57:18;;;;;;;5.63;2.00;;;24.70;1.00;;;;;;6206018;28;20049;-78
2023/09/12 14:00:20;;;;;;;9.63;2.50;;;24.90;1.00;;;;;;6218736;28;20081;-80
2023/09/12 14:03:34;;;;;;;4.20;2.03;;;24.60;1.00;;;;;;6202397;28;20115;-79
2023/09/12 14:06:36;;;;;;;4.50;1.83;;;24.70;1.00;;;;;;6219092;28;20060;-81
2023/09/12 14:09:39;;;;;;;11.13;2.00;;;24.70;1.00;;;;;;6208188;28;20387;-81
2023/09/12 14:12:41;;;;;;;5.45;1.92;;;24.70;1.00;;;;;;6244410;28;20057;-80
2023/09/12 14:15:46;;;;;;;13.48;2.60;;;24.50;1.00;;;;;;6221527;28;20058;-82
2023/09/12 14:18:48;;;;;;;100.10;5.47;;;24.40;1.00;;;;;;6234126;28;20125;-85
2023/09/12 14:21:50;;;;;;;91.07;9.07;;;24.40;1.00;;;;;;6247403;28;20049;-82
2023/09/12 14:24:54;;;;;;;17.13;2.60;;;24.40;1.00;;;;;;6245446;28;20072;-80
2023/09/12 14:27:56;;;;;;;5.63;1.85;;;24.40;1.00;;;;;;6223320;28;20058;-76
2023/09/12 14:30:58;;;;;;;5.47;1.85;;;24.60;1.00;;;;;;6246306;28;20075;-79
2023/09/12 14:34:00;;;;;;;8.10;2.10;;;24.50;1.00;;;;;;6222651;28;20460;-78
2023/09/12 14:37:01;;;;;;;6.38;1.80;;;24.60;1.00;;;;;;6244268;28;20095;-76
2023/09/12 14:40:03;;;;;;;6.60;1.80;;;24.60;1.00;;;;;;6216661;28;20058;-75
2023/09/12 14:43:05;;;;;;;3.45;1.80;;;24.50;1.00;;;;;;6208080;28;20248;-75
2023/09/12 14:46:08;;;;;;;5.88;1.50;;;24.40;1.00;;;;;;6246036;28;20061;-78
2023/09/12 14:49:10;;;;;;;4.63;1.85;;;24.30;1.00;;;;;;6222358;28;20046;-76
2023/09/12 14:52:12;;;;;;;5.95;1.90;;;24.20;1.00;;;;;;6243349;28;20053;-77
2023/09/12 14:55:26;;;;;;;4.20;1.60;;;24.00;1.00;;;;;;6222387;28;20057;-76
2023/09/12 14:58:28;;;;;;;3.40;1.67;;;24.00;1.00;;;;;;6245648;28;20060;-77
2023/09/12 15:01:30;;;;;;;11.13;2.33;;;24.20;1.00;;;;;;6222010;28;20046;-76
2023/09/12 15:04:32;;;;;;;4.15;1.80;;;24.20;1.00;;;;;;6245218;28;20054;-74
2023/09/12 15:07:34;;;;;;;5.60;2.13;;;24.30;1.00;;;;;;6225896;28;20149;-74
2023/09/12 15:10:35;;;;;;;6.90;2.33;;;24.30;1.00;;;;;;6245454;28;20750;-77
2023/09/12 15:13:37;;;;;;;9.30;3.25;;;24.20;1.00;;;;;;6245072;28;20060;-76
2023/09/12 15:16:42;;;;;;;6.65;2.40;;;24.30;1.00;;;;;;6195830;28;20057;-77
2023/09/12 15:19:44;;;;;;;7.63;2.17;;;24.20;1.00;;;;;;6223239;28;20437;-77
2023/09/12 15:22:46;;;;;;;7.68;2.30;;;24.10;1.00;;;;;;6234886;28;20429;-76
2023/09/12 15:25:47;;;;;;;6.03;2.42;;;23.90;1.00;;;;;;6219084;28;20058;-77
2023/09/12 15:28:49;;;;;;;11.90;2.80;;;23.80;1.00;;;;;;6243980;28;20049;-78
2023/09/12 15:31:51;;;;;;;12.05;2.90;;;23.60;1.00;;;;;;6228291;28;20065;-75
2023/09/12 15:34:53;;;;;;;6.38;2.60;;;23.50;1.00;;;;;;6219414;28;20056;-77
2023/09/12 15:37:55;;;;;;;8.32;2.40;;;23.50;1.00;;;;;;6231760;28;20062;-76
2023/09/12 15:40:56;;;;;;;9.15;2.53;;;23.50;1.00;;;;;;6244658;28;20049;-76
2023/09/12 15:44:01;;;;;;;6.68;2.47;;;23.30;1.00;;;;;;6220630;28;20062;-76
2023/09/12 15:47:05;;;;;;;8.45;2.90;;;23.30;1.00;;;;;;6196573;28;20065;-76
2023/09/12 15:50:20;;;;;;;7.43;2.80;;;23.30;1.00;;;;;;6196639;28;20085;-77